createdAt,value
2018-12-13T00:01:01.198Z,94925.05
2018-12-13T00:03:29.830Z,94921.36
2018-12-13T00:05:58.446Z,94932.83
2018-12-13T00:08:27.023Z,94933.85
2018-12-13T00:10:55.638Z,94928.73
2018-12-13T00:13:24.331Z,94923.89
2018-12-13T00:15:52.976Z,94921.03
2018-12-13T00:18:21.600Z,94933.45
2018-12-13T00:20:50.250Z,94930.46
2018-12-13T00:23:18.900Z,94926.55
2018-12-13T00:25:47.534Z,94923.88
2018-12-13T00:28:16.202Z,94928.61
2018-12-13T00:30:44.838Z,94934.39
2018-12-13T00:33:13.554Z,94931.86
2018-12-13T00:35:42.330Z,94928.34
2018-12-13T00:39:14.131Z,94937.45
2018-12-13T00:41:43.034Z,94927.35
2018-12-13T00:44:12.478Z,94929.59
2018-12-13T00:46:41.074Z,94937.55
2018-12-13T00:49:10.406Z,94932.98
2018-12-13T00:51:39.955Z,94945.21
2018-12-13T00:54:08.498Z,94938.20
2018-12-13T00:56:37.157Z,94939.68
2018-12-13T00:59:05.820Z,94935.48
2018-12-13T01:01:34.434Z,94940.44
2018-12-13T01:04:03.081Z,94944.34
2018-12-13T01:06:32.681Z,94943.81
2018-12-13T01:09:01.304Z,94938.70
2018-12-13T01:11:29.865Z,94935.36
2018-12-13T01:13:58.547Z,94932.54
2018-12-13T01:16:27.222Z,94929.02
2018-12-13T01:18:55.883Z,94938.70
2018-12-13T01:21:24.517Z,94936.41
2018-12-13T01:23:53.162Z,94935.52
2018-12-13T01:26:21.773Z,94941.00
2018-12-13T01:28:50.381Z,94940.98
2018-12-13T01:31:19.031Z,94948.66
2018-12-13T01:33:47.647Z,94947.85
2018-12-13T01:36:16.259Z,94946.14
2018-12-13T01:38:44.854Z,94941.88
2018-12-13T01:41:13.499Z,94942.48
2018-12-13T01:43:42.095Z,94949.66
2018-12-13T01:46:10.679Z,94942.45
2018-12-13T01:48:39.315Z,94942.81
2018-12-13T01:51:07.928Z,94941.33
2018-12-13T01:53:36.538Z,94935.25
2018-12-13T01:56:05.157Z,94940.25
2018-12-13T01:58:33.757Z,94939.30
2018-12-13T02:01:02.386Z,94946.04
2018-12-13T02:03:31.037Z,94943.34
2018-12-13T02:05:59.695Z,94942.22
2018-12-13T02:08:28.335Z,94943.22
2018-12-13T02:10:56.915Z,94939.87
2018-12-13T02:13:26.276Z,94935.13
2018-12-13T02:15:54.912Z,94932.80
2018-12-13T02:18:23.587Z,94934.33
2018-12-13T02:20:52.211Z,94938.63
2018-12-13T02:23:20.801Z,94937.27
2018-12-13T02:25:49.521Z,94927.48
2018-12-13T02:28:18.999Z,94927.38
2018-12-13T02:30:47.659Z,94925.52
2018-12-13T02:33:16.213Z,94924.19
2018-12-13T02:35:44.814Z,94924.13
2018-12-13T02:38:13.451Z,94923.92
2018-12-13T02:40:42.017Z,94930.19
2018-12-13T02:43:10.657Z,94931.84
2018-12-13T02:45:39.265Z,94927.50
2018-12-13T02:48:07.913Z,94922.86
2018-12-13T02:50:36.567Z,94918.14
2018-12-13T02:53:05.141Z,94918.87
2018-12-13T02:55:33.750Z,94924.30
2018-12-13T02:58:02.380Z,94926.22
2018-12-13T03:00:31.005Z,94932.70
2018-12-13T03:02:59.630Z,94937.42
2018-12-13T03:05:28.275Z,94937.32
2018-12-13T03:07:56.882Z,94937.02
2018-12-13T03:10:26.402Z,94933.23
2018-12-13T03:12:55.548Z,94933.70
2018-12-13T03:15:24.175Z,94928.83
2018-12-13T03:17:52.828Z,94936.05
2018-12-13T03:20:21.455Z,94943.48
2018-12-13T03:22:50.068Z,94944.87
2018-12-13T03:25:18.678Z,94938.48
2018-12-13T03:27:47.273Z,94936.06
2018-12-13T03:30:15.906Z,94940.19
2018-12-13T03:32:44.805Z,94937.86
2018-12-13T03:35:13.452Z,94942.91
2018-12-13T03:37:42.049Z,94944.51
2018-12-13T03:40:10.795Z,94939.34
2018-12-13T03:42:40.972Z,94935.31
2018-12-13T03:45:09.646Z,94935.89
2018-12-13T03:47:38.230Z,94931.90
2018-12-13T03:50:06.917Z,94934.45
2018-12-13T03:52:35.562Z,94934.41
2018-12-13T03:55:04.469Z,94931.16
2018-12-13T03:57:33.135Z,94926.73
2018-12-13T04:00:01.755Z,94923.21
2018-12-13T04:02:30.421Z,94921.00
2018-12-13T04:04:59.304Z,94922.81
2018-12-13T04:07:28.021Z,94926.80
2018-12-13T04:09:56.641Z,94934.56
2018-12-13T04:12:25.261Z,94933.72
2018-12-13T04:14:53.797Z,94933.55
2018-12-13T04:17:22.444Z,94936.77
2018-12-13T04:19:51.171Z,94939.44
2018-12-13T04:22:19.777Z,94935.42
2018-12-13T04:24:48.419Z,94938.34
2018-12-13T04:27:17.014Z,94938.88
2018-12-13T04:29:45.580Z,94937.44
2018-12-13T04:32:14.210Z,94935.87
2018-12-13T04:34:42.845Z,94940.89
2018-12-13T04:37:11.490Z,94938.53
2018-12-13T04:39:40.113Z,94937.59
2018-12-13T04:42:08.721Z,94940.24
2018-12-13T04:44:37.944Z,94946.53
2018-12-13T04:47:06.819Z,94947.42
2018-12-13T04:49:36.322Z,94948.32
2018-12-13T04:52:04.971Z,94946.13
2018-12-13T04:54:33.615Z,94948.23
2018-12-13T04:57:02.276Z,94947.50
2018-12-13T04:59:30.970Z,94945.28
2018-12-13T05:01:59.617Z,94954.20
2018-12-13T05:04:28.996Z,94951.19
2018-12-13T05:06:57.738Z,94950.63
2018-12-13T05:09:26.443Z,94958.02
2018-12-13T05:11:55.004Z,94951.99
2018-12-13T05:14:23.865Z,94951.28
2018-12-13T05:16:52.722Z,94952.42
2018-12-13T05:19:21.416Z,94953.70
2018-12-13T05:21:50.075Z,94956.06
2018-12-13T05:24:18.850Z,94956.86
2018-12-13T05:26:48.045Z,94963.06
2018-12-13T05:29:16.661Z,94962.82
2018-12-13T05:31:45.261Z,94964.78
2018-12-13T05:34:13.881Z,94969.80
2018-12-13T05:36:42.494Z,94972.20
2018-12-13T05:39:11.096Z,94969.31
2018-12-13T05:41:39.827Z,94969.70
2018-12-13T05:44:08.524Z,94969.16
2018-12-13T05:46:37.265Z,94975.46
2018-12-13T05:49:05.892Z,94977.33
2018-12-13T05:51:34.568Z,94974.70
2018-12-13T05:54:03.292Z,94974.45
2018-12-13T05:56:31.961Z,94981.56
2018-12-13T05:59:00.579Z,94979.20
2018-12-13T06:01:29.319Z,94981.03
2018-12-13T06:03:57.969Z,94975.94
2018-12-13T06:06:26.566Z,94980.63
2018-12-13T06:08:55.205Z,94977.15
2018-12-13T06:11:23.893Z,94979.54
2018-12-13T06:13:52.489Z,94983.52
2018-12-13T06:16:21.116Z,94979.77
2018-12-13T06:18:49.754Z,94977.15
2018-12-13T06:21:18.364Z,94978.58
2018-12-13T06:23:47.036Z,94980.13
2018-12-13T06:26:15.640Z,94976.06
2018-12-13T06:28:44.290Z,94977.86
2018-12-13T06:31:13.007Z,94976.73
2018-12-13T06:33:41.662Z,94972.35
2018-12-13T06:36:10.317Z,94975.91
2018-12-13T06:38:39.001Z,94976.58
2018-12-13T06:41:07.633Z,94975.36
2018-12-13T06:43:36.338Z,94976.97
2018-12-13T06:46:04.961Z,94975.27
2018-12-13T06:48:33.607Z,94976.39
2018-12-13T06:51:02.290Z,94970.87
2018-12-13T06:53:30.952Z,94973.61
2018-12-13T06:56:00.214Z,94969.48
2018-12-13T06:58:28.828Z,94969.30
2018-12-13T07:00:57.463Z,94967.73
2018-12-13T07:03:26.055Z,94971.43
2018-12-13T07:05:54.803Z,94966.89
2018-12-13T07:08:23.472Z,94972.91
2018-12-13T07:10:52.137Z,94973.46
2018-12-13T07:13:20.792Z,94964.81
2018-12-13T07:15:49.506Z,94970.09
2018-12-13T07:18:18.138Z,94969.69
2018-12-13T07:20:46.801Z,94972.31
2018-12-13T07:23:15.454Z,94977.03
2018-12-13T07:25:44.178Z,94975.83
2018-12-13T07:28:12.852Z,94972.73
2018-12-13T07:30:41.504Z,94978.00
2018-12-13T07:33:10.183Z,94972.27
2018-12-13T07:35:38.874Z,94975.20
2018-12-13T07:38:14.091Z,94980.03
2018-12-13T07:40:38.394Z,94979.75
2018-12-13T07:43:06.972Z,94979.86
2018-12-13T07:45:35.582Z,94976.66
2018-12-13T07:48:04.257Z,94976.48
2018-12-13T07:50:32.923Z,94972.96
2018-12-13T07:53:01.627Z,94969.54
2018-12-13T07:55:30.252Z,94968.34
2018-12-13T07:57:58.907Z,94965.84
2018-12-13T08:00:27.555Z,94965.03
2018-12-13T08:02:56.294Z,94972.46
2018-12-13T08:05:24.971Z,94973.70
2018-12-13T08:07:53.622Z,94971.59
2018-12-13T08:10:22.250Z,94971.34
2018-12-13T08:12:50.961Z,94970.64
2018-12-13T08:15:19.537Z,94970.80
2018-12-13T08:17:48.115Z,94971.05
2018-12-13T08:20:16.774Z,94970.07
2018-12-13T08:22:45.437Z,94959.40
2018-12-13T08:25:14.471Z,94959.69
2018-12-13T08:27:43.062Z,94966.00
2018-12-13T08:30:12.006Z,94962.16
2018-12-13T08:32:40.641Z,94958.24
2018-12-13T08:35:09.351Z,94963.45
2018-12-13T08:37:37.933Z,94963.95
2018-12-13T08:40:07.260Z,94967.88
2018-12-13T08:42:35.947Z,94958.28
2018-12-13T08:45:04.891Z,94965.55
2018-12-13T08:47:33.453Z,94960.36
2018-12-13T08:50:02.118Z,94954.19
2018-12-13T08:52:30.753Z,94951.28
2018-12-13T08:54:59.488Z,94951.58
2018-12-13T08:57:28.112Z,94953.48
2018-12-13T08:59:56.724Z,94946.86
2018-12-13T09:02:25.355Z,94948.97
2018-12-13T09:04:54.083Z,94944.56
2018-12-13T09:07:22.750Z,94941.48
2018-12-13T09:09:51.396Z,94934.34
2018-12-13T09:12:20.137Z,94936.43
2018-12-13T09:14:48.888Z,94930.82
2018-12-13T09:17:17.572Z,94928.11
2018-12-13T09:19:46.214Z,94923.32
2018-12-13T09:22:14.785Z,94925.44
2018-12-13T09:24:43.447Z,94920.03
2018-12-13T09:27:12.086Z,94912.77
2018-12-13T09:29:40.772Z,94911.61
2018-12-13T09:32:09.434Z,94908.50
2018-12-13T09:34:38.043Z,94903.22
2018-12-13T09:37:06.935Z,94902.74
2018-12-13T09:39:35.590Z,94897.26
2018-12-13T09:42:04.739Z,94890.36
2018-12-13T09:44:33.418Z,94888.38
2018-12-13T09:47:02.125Z,94888.48
2018-12-13T09:49:30.850Z,94877.95
2018-12-13T09:51:59.593Z,94880.23
2018-12-13T09:54:28.725Z,94873.60
2018-12-13T09:56:57.392Z,94874.77
2018-12-13T09:59:26.062Z,94872.50
2018-12-13T10:01:54.825Z,94865.39
2018-12-13T10:04:23.471Z,94865.71
2018-12-13T10:06:52.101Z,94869.27
2018-12-13T10:09:20.916Z,94867.44
2018-12-13T10:11:49.582Z,94865.19
2018-12-13T10:14:18.270Z,94866.33
2018-12-13T10:16:47.005Z,94859.17
2018-12-13T10:19:15.658Z,94855.20
2018-12-13T10:21:44.423Z,94859.14
2018-12-13T10:24:13.092Z,94849.62
2018-12-13T10:26:41.878Z,94843.87
2018-12-13T10:29:10.500Z,94834.81
2018-12-13T10:31:39.098Z,94830.47
2018-12-13T10:34:07.867Z,94828.95
2018-12-13T10:36:36.525Z,94823.13
2018-12-13T10:39:08.473Z,94811.30
2018-12-13T10:41:37.169Z,94815.52
2018-12-13T10:44:05.810Z,94808.63
2018-12-13T10:46:34.426Z,94807.08
2018-12-13T10:49:03.128Z,94803.00
2018-12-13T10:51:31.717Z,94799.48
2018-12-13T10:54:00.376Z,94795.52
2018-12-13T10:56:29.044Z,94795.86
2018-12-13T10:58:57.848Z,94784.20
2018-12-13T11:01:31.615Z,94777.00
2018-12-13T11:04:00.262Z,94777.52
2018-12-13T11:06:29.156Z,94776.53
2018-12-13T11:08:59.531Z,94776.55
2018-12-13T11:11:28.537Z,94782.09
2018-12-13T11:13:57.207Z,94772.48
2018-12-13T11:16:25.851Z,94774.45
2018-12-13T11:18:54.513Z,94769.58
2018-12-13T11:21:23.209Z,94772.33
2018-12-13T11:23:51.910Z,94769.57
2018-12-13T11:26:20.614Z,94761.78
2018-12-13T11:30:01.750Z,94762.61
2018-12-13T11:32:31.375Z,94755.92
2018-12-13T11:35:00.158Z,94761.57
2018-12-13T11:37:28.739Z,94758.33
2018-12-13T11:39:57.385Z,94754.11
2018-12-13T11:42:26.065Z,94753.98
2018-12-13T11:44:54.652Z,94752.25
2018-12-13T11:47:23.299Z,94747.70
2018-12-13T11:49:51.960Z,94749.23
2018-12-13T11:52:20.628Z,94752.18
2018-12-13T11:54:49.442Z,94744.31
2018-12-13T11:57:18.063Z,94740.11
2018-12-13T11:59:46.772Z,94740.28
2018-12-13T12:02:15.535Z,94744.30
2018-12-13T12:04:44.210Z,94742.50
2018-12-13T12:07:12.863Z,94747.46
2018-12-13T12:09:41.541Z,94747.51
2018-12-13T12:12:10.281Z,94749.13
2018-12-13T12:14:38.847Z,94743.98
2018-12-13T12:17:07.612Z,94745.39
2018-12-13T12:19:36.279Z,94737.82
2018-12-13T12:22:04.942Z,94736.69
2018-12-13T12:24:33.642Z,94732.54
2018-12-13T12:27:02.276Z,94730.63
2018-12-13T12:29:30.916Z,94724.89
2018-12-13T12:31:59.564Z,94719.75
2018-12-13T12:34:28.192Z,94719.06
2018-12-13T12:36:56.848Z,94724.69
2018-12-13T12:39:25.538Z,94725.66
2018-12-13T12:41:54.137Z,94726.16
2018-12-13T12:44:22.826Z,94725.66
2018-12-13T12:46:51.447Z,94715.11
2018-12-13T12:49:20.086Z,94715.50
2018-12-13T12:51:49.017Z,94714.44
2018-12-13T12:54:17.657Z,94724.95
2018-12-13T12:56:46.327Z,94724.27
2018-12-13T12:59:15.016Z,94719.72
2018-12-13T13:01:43.633Z,94729.34
2018-12-13T13:04:12.261Z,94733.22
2018-12-13T13:06:40.882Z,94730.16
2018-12-13T13:09:09.874Z,94727.24
2018-12-13T13:11:38.819Z,94726.24
2018-12-13T13:14:07.429Z,94729.66
2018-12-13T13:16:36.031Z,94726.50
2018-12-13T13:19:04.727Z,94728.36
2018-12-13T13:21:33.359Z,94729.55
2018-12-13T13:24:02.024Z,94732.41
2018-12-13T13:26:30.634Z,94734.73
2018-12-13T13:28:59.252Z,94740.20
2018-12-13T13:31:27.867Z,94738.89
2018-12-13T13:33:56.517Z,94743.91
2018-12-13T13:36:25.184Z,94752.78
2018-12-13T13:38:54.634Z,94753.99
2018-12-13T13:41:23.506Z,94756.80
2018-12-13T13:43:52.098Z,94764.34
2018-12-13T13:46:20.743Z,94765.31
2018-12-13T13:48:49.360Z,94760.14
2018-12-13T13:51:18.254Z,94764.62
2018-12-13T13:53:47.051Z,94759.34
2018-12-13T13:56:15.688Z,94760.56
2018-12-13T13:58:44.313Z,94756.08
2018-12-13T14:01:12.994Z,94758.09
2018-12-13T14:03:41.624Z,94757.66
2018-12-13T14:06:10.408Z,94758.05
2018-12-13T14:08:39.143Z,94754.36
2018-12-13T14:11:08.525Z,94752.72
2018-12-13T14:13:37.100Z,94745.25
2018-12-13T14:16:05.933Z,94746.20
2018-12-13T14:18:34.729Z,94754.61
2018-12-13T14:21:03.396Z,94749.60
2018-12-13T14:23:31.970Z,94750.72
2018-12-13T14:26:00.817Z,94746.79
2018-12-13T14:28:29.474Z,94755.95
2018-12-13T14:30:58.158Z,94751.86
2018-12-13T14:33:26.817Z,94753.30
2018-12-13T14:35:55.442Z,94752.12
2018-12-13T14:38:26.052Z,94759.60
2018-12-13T14:40:54.703Z,94755.08
2018-12-13T14:43:23.348Z,94760.23
2018-12-13T14:45:53.705Z,94757.72
2018-12-13T14:48:26.680Z,94756.47
2018-12-13T14:50:55.383Z,94754.44
2018-12-13T14:53:24.349Z,94751.31
2018-12-13T14:55:53.065Z,94744.78
2018-12-13T14:58:22.407Z,94741.30
2018-12-13T15:00:51.150Z,94742.59
2018-12-13T15:03:19.790Z,94746.97
2018-12-13T15:05:48.421Z,94743.13
2018-12-13T15:08:17.066Z,94738.35
2018-12-13T15:10:45.738Z,94736.88
2018-12-13T15:13:14.287Z,94741.09
2018-12-13T15:15:42.937Z,94755.23
2018-12-13T15:18:11.925Z,94754.03
2018-12-13T15:20:40.627Z,94754.03
2018-12-13T15:23:09.220Z,94754.79
2018-12-13T15:28:13.388Z,94760.05
2018-12-13T15:30:42.085Z,94758.27
2018-12-13T15:33:10.750Z,94756.28
2018-12-13T15:35:39.390Z,94756.78
2018-12-13T15:38:08.023Z,94755.98
2018-12-13T15:40:37.720Z,94756.97
2018-12-13T15:43:06.383Z,94749.69
2018-12-13T15:45:35.172Z,94753.45
2018-12-13T15:48:03.808Z,94746.41
2018-12-13T15:50:32.475Z,94744.42
2018-12-13T15:53:01.335Z,94741.50
2018-12-13T15:55:30.119Z,94741.36
2018-12-13T15:57:58.735Z,94740.33
2018-12-13T16:00:27.402Z,94741.36
2018-12-13T16:02:56.609Z,94745.12
2018-12-13T16:05:25.304Z,94740.44
2018-12-13T16:07:53.907Z,94745.12
2018-12-13T16:10:23.004Z,94751.95
2018-12-13T16:12:51.592Z,94749.51
2018-12-13T16:15:20.295Z,94748.00
2018-12-13T16:17:49.056Z,94744.78
2018-12-13T16:20:17.665Z,94746.23
2018-12-13T16:22:46.293Z,94743.28
2018-12-13T16:25:15.043Z,94731.25
2018-12-13T16:27:43.920Z,94730.25
2018-12-13T16:30:12.727Z,94729.63
2018-12-13T16:32:41.737Z,94739.65
2018-12-13T16:35:10.365Z,94740.03
2018-12-13T16:37:39.001Z,94745.56
2018-12-13T16:40:10.488Z,94739.22
2018-12-13T16:42:38.735Z,94738.30
2018-12-13T16:45:07.382Z,94738.12
2018-12-13T16:47:36.687Z,94747.55
2018-12-13T16:50:05.667Z,94752.20
2018-12-13T16:52:34.404Z,94751.02
2018-12-13T16:55:03.196Z,94742.73
2018-12-13T16:57:31.882Z,94740.04
2018-12-13T17:00:00.500Z,94739.81
2018-12-13T17:02:29.115Z,94735.22
2018-12-13T17:05:03.381Z,94734.86
2018-12-13T17:07:28.456Z,94735.39
2018-12-13T17:09:57.113Z,94735.43
2018-12-13T17:12:25.776Z,94733.80
2018-12-13T17:14:54.498Z,94728.92
2018-12-13T17:17:23.080Z,94731.80
2018-12-13T17:19:51.828Z,94731.94
2018-12-13T17:22:20.893Z,94736.19
2018-12-13T17:24:49.568Z,94736.98
2018-12-13T17:27:18.242Z,94740.09
2018-12-13T17:29:46.893Z,94738.23
2018-12-13T17:32:15.553Z,94729.73
2018-12-13T17:34:44.178Z,94734.67
2018-12-13T17:37:12.719Z,94738.25
2018-12-13T17:39:41.426Z,94744.44
2018-12-13T17:42:10.090Z,94745.34
2018-12-13T17:44:38.753Z,94749.31
2018-12-13T17:47:07.453Z,94750.95
2018-12-13T17:49:36.143Z,94762.86
2018-12-13T17:52:04.925Z,94760.55
2018-12-13T17:54:33.680Z,94764.49
2018-12-13T17:57:02.324Z,94760.55
2018-12-13T17:59:30.963Z,94752.23
2018-12-13T18:02:00.580Z,94762.05
2018-12-13T18:04:29.218Z,94754.83
2018-12-13T18:06:57.855Z,94762.86
2018-12-13T18:09:26.451Z,94760.55
2018-12-13T18:11:55.182Z,94748.06
2018-12-13T18:14:24.689Z,94747.33
2018-12-13T18:16:53.264Z,94750.57
2018-12-13T18:19:21.953Z,94742.19
2018-12-13T18:21:50.622Z,94749.89
2018-12-13T18:24:19.269Z,94749.98
2018-12-13T18:26:47.917Z,94745.11
2018-12-13T18:29:16.604Z,94745.20
2018-12-13T18:31:45.286Z,94744.05
2018-12-13T18:34:14.563Z,94740.52
2018-12-13T18:36:43.226Z,94740.75
2018-12-13T18:39:12.071Z,94746.07
2018-12-13T18:41:40.712Z,94747.58
2018-12-13T18:44:09.368Z,94748.19
2018-12-13T18:46:38.115Z,94749.80
2018-12-13T18:49:06.779Z,94762.17
2018-12-13T18:51:35.525Z,94753.88
2018-12-13T18:54:04.313Z,94752.59
2018-12-13T18:56:32.893Z,94758.33
2018-12-13T18:59:01.465Z,94757.07
2018-12-13T19:01:30.094Z,94755.89
2018-12-13T19:03:58.723Z,94748.69
2018-12-13T19:06:27.695Z,94761.14
2018-12-13T19:08:56.423Z,94759.41
2018-12-13T19:11:25.269Z,94771.30
2018-12-13T19:13:53.918Z,94773.30
2018-12-13T19:16:22.781Z,94765.09
2018-12-13T19:18:51.832Z,94767.66
2018-12-13T19:21:20.406Z,94769.91
2018-12-13T19:23:49.211Z,94764.77
2018-12-13T19:26:17.829Z,94759.86
2018-12-13T19:28:46.385Z,94752.54
2018-12-13T19:31:15.165Z,94754.52
2018-12-13T19:33:43.776Z,94759.30
2018-12-13T19:36:12.746Z,94758.73
2018-12-13T19:38:41.429Z,94753.27
2018-12-13T19:41:10.018Z,94768.98
2018-12-13T19:43:38.791Z,94772.25
2018-12-13T19:46:08.281Z,94779.96
2018-12-13T19:48:36.897Z,94779.48
2018-12-13T19:51:05.911Z,94767.81
2018-12-13T19:53:35.291Z,94759.78
2018-12-13T19:56:04.204Z,94753.16
2018-12-13T19:58:32.822Z,94749.75
2018-12-13T20:01:01.620Z,94768.17
2018-12-13T20:03:30.401Z,94778.22
2018-12-13T20:05:59.076Z,94764.47
2018-12-13T20:08:27.738Z,94768.41
2018-12-13T20:10:56.347Z,94778.91
2018-12-13T20:13:24.973Z,94774.48
2018-12-13T20:15:53.617Z,94770.17
2018-12-13T20:18:22.407Z,94768.30
2018-12-13T20:20:51.143Z,94760.14
2018-12-13T20:23:20.292Z,94760.38
2018-12-13T20:25:48.960Z,94756.52
2018-12-13T20:28:17.710Z,94760.39
2018-12-13T20:30:46.543Z,94756.17
2018-12-13T20:33:15.210Z,94753.48
2018-12-13T20:35:43.917Z,94757.33
2018-12-13T20:38:12.832Z,94745.79
2018-12-13T20:40:41.519Z,94745.45
2018-12-13T20:43:10.194Z,94742.30
2018-12-13T20:45:39.021Z,94752.32
2018-12-13T20:48:08.685Z,94746.28
2018-12-13T20:50:37.487Z,94743.23
2018-12-13T20:53:06.373Z,94738.57
2018-12-13T20:55:34.970Z,94738.80
2018-12-13T20:58:03.574Z,94740.32
2018-12-13T21:00:32.378Z,94735.55
2018-12-13T21:03:01.004Z,94739.98
2018-12-13T21:05:30.507Z,94739.14
2018-12-13T21:08:04.436Z,94740.55
2018-12-13T21:10:33.392Z,94736.12
2018-12-13T21:13:02.050Z,94736.59
2018-12-13T21:15:33.575Z,94735.53
2018-12-13T21:18:03.199Z,94727.73
2018-12-13T21:20:32.638Z,94725.52
2018-12-13T21:23:01.292Z,94730.19
2018-12-13T21:25:29.962Z,94728.80
2018-12-13T21:27:58.673Z,94737.41
2018-12-13T21:30:27.263Z,94733.78
2018-12-13T21:32:55.874Z,94730.66
2018-12-13T21:35:24.491Z,94733.67
2018-12-13T21:37:53.072Z,94733.09
2018-12-13T21:40:21.765Z,94733.11
2018-12-13T21:42:50.464Z,94740.66
2018-12-13T21:46:22.296Z,94743.23
2018-12-13T21:48:51.852Z,94739.50
2018-12-13T21:51:21.109Z,94746.62
2018-12-13T21:53:49.988Z,94748.13
2018-12-13T21:56:18.653Z,94741.73
2018-12-13T21:58:47.400Z,94735.09
2018-12-13T22:01:16.104Z,94732.05
2018-12-13T22:03:45.188Z,94736.02
2018-12-13T22:06:13.932Z,94731.36
2018-12-13T22:08:42.539Z,94732.87
2018-12-13T22:11:12.703Z,94734.02
2018-12-13T22:13:41.391Z,94733.31
2018-12-13T22:16:10.137Z,94738.08
2018-12-13T22:18:39.918Z,94729.58
2018-12-13T22:21:08.608Z,94728.54
2018-12-13T22:23:37.305Z,94720.72
2018-12-13T22:26:05.965Z,94722.55
2018-12-13T22:28:34.548Z,94726.52
2018-12-13T22:31:04.323Z,94723.48
2018-12-13T22:33:33.143Z,94721.23
2018-12-13T22:36:01.793Z,94717.73
2018-12-13T22:38:30.442Z,94715.68
2018-12-13T22:40:59.052Z,94714.30
2018-12-13T22:43:27.761Z,94700.51
2018-12-13T22:45:56.343Z,94705.64
2018-12-13T22:48:25.925Z,94704.13
2018-12-13T22:50:55.565Z,94717.80
2018-12-13T22:53:25.206Z,94699.50
2018-12-13T22:55:53.933Z,94674.55
2018-12-13T22:58:23.163Z,94687.02
2018-12-13T23:00:51.788Z,94707.92
2018-12-13T23:03:20.459Z,94704.73
2018-12-13T23:05:49.105Z,94701.86
2018-12-13T23:08:17.819Z,94712.90
2018-12-13T23:10:46.366Z,94721.80
2018-12-13T23:13:14.973Z,94718.38
2018-12-13T23:15:43.598Z,94716.64
2018-12-13T23:18:12.480Z,94714.52
2018-12-13T23:20:41.174Z,94722.09
2018-12-13T23:23:09.911Z,94719.63
2018-12-13T23:25:38.588Z,94716.71
2018-12-13T23:28:07.144Z,94716.10
2018-12-13T23:30:36.314Z,94709.69
2018-12-13T23:33:04.914Z,94710.75
2018-12-13T23:35:33.509Z,94709.39
2018-12-13T23:38:02.158Z,94704.48
2018-12-13T23:40:30.860Z,94720.20
2018-12-13T23:42:59.397Z,94721.69
2018-12-13T23:45:27.942Z,94720.88
2018-12-13T23:47:56.606Z,94717.29
2018-12-13T23:50:25.140Z,94715.66
2018-12-13T23:52:53.790Z,94727.58
2018-12-13T23:55:22.393Z,94733.77
2018-12-13T23:57:51.011Z,94736.56
